Pays
Station

 

Conditions  météo  pour  Scilly, Saint Mary'S  -  Royaume-Uni    Royaume-Uni

  
15 °C
    
 
 

METAR pour Scilly, Saint Mary'S :

EGHE 201650Z 10002KT CAVOK 15/12 Q1030

 

Voici le bulletin pour Scilly, Saint Mary'S - Royaume-Uni.
 
Le bulletin a été fait il y a 30 heures et 12 minutes, à 16:50 UTC .
Le vent soufflait à la vitesse de 1.0 mètres par seconde de Est (100°).
 
La température était de 15 °C, avec un point de rosée à 12 °C.
La pression atmosphérique était de 1030 hPa.
L'humidité relative était de 82.2%.
 
Il y avait pas de nuages en-dessous de 1500 mètres et pas de cumulonimbus.
 
La visibilité globale était de supérieure à 10 kilomètres.
 

 
 
 

Pays :   A   B   C   D   E   F   G   H   I   J   K   L   M   N   O   P   Q   R   S   T   U   V   W   Y   Z

 

Partenaires :  Info Météo avec Met'info
Météo Marine avec MeteoMarine.net
Infos Site  |  Infos Légales  |  Crédits  |  Confidentialité
Contactez-nous  |  Ajouter aux favoris
© 2013-2018 METAR - Tous droits réservés